Time;durP1;ratioP1;P1;durP2;ratioP2;P2;SDS_P1;SDS_P2;PMS_P1;PMS_P2;Temp;Humidity;BMP_temperature;BMP_pressure;BME280_temperature;BME280_humidity;BME280_pressure;Samples;Min_cycle;Max_cycle;Signal;HPM_P1;HPM_P2
2023/01/15 00:00:23;;;;;;;4.53;3.50;;;;;20.10;98840.00;;;;2070658;28;20214;-51
2023/01/15 00:01:26;;;;;;;8.00;3.50;;;;;20.10;98845.00;;;;2071160;28;20206;-51
2023/01/15 00:02:26;;;;;;;7.80;3.30;;;;;20.20;98847.00;;;;2069267;28;20297;-51
2023/01/15 00:03:27;;;;;;;4.90;2.93;;;;;20.10;98843.00;;;;2070477;28;20221;-50
2023/01/15 00:04:27;;;;;;;4.60;2.90;;;;;20.20;98852.00;;;;2070846;28;20202;-51
2023/01/15 00:05:28;;;;;;;4.93;2.80;;;;;20.10;98857.00;;;;2071134;28;20218;-51
2023/01/15 00:06:28;;;;;;;4.90;2.83;;;;;20.10;98862.00;;;;2070834;28;20568;-51
2023/01/15 00:07:29;;;;;;;5.10;2.50;;;;;20.10;98856.00;;;;2071026;28;20214;-51
2023/01/15 00:08:29;;;;;;;4.38;2.80;;;;;20.20;98856.00;;;;2070479;28;20769;-51
2023/01/15 00:09:30;;;;;;;3.50;2.60;;;;;20.20;98846.00;;;;2071025;28;20210;-51
2023/01/15 00:10:30;;;;;;;3.30;2.30;;;;;20.20;98850.00;;;;2071093;28;20210;-50
2023/01/15 00:11:30;;;;;;;6.73;2.80;;;;;20.20;98845.00;;;;2070156;28;20219;-50
2023/01/15 00:12:31;;;;;;;4.93;2.97;;;;;20.10;98831.00;;;;2069041;28;20230;-51
2023/01/15 00:13:31;;;;;;;5.40;2.67;;;;;20.20;98830.00;;;;2071183;28;20218;-50
2023/01/15 00:14:31;;;;;;;7.27;2.80;;;;;20.10;98828.00;;;;2071116;28;20222;-51
2023/01/15 00:15:32;;;;;;;4.27;2.60;;;;;20.10;98836.00;;;;2070920;28;20269;-50
2023/01/15 00:16:32;;;;;;;4.67;2.53;;;;;20.10;98841.00;;;;2071070;28;20214;-51
2023/01/15 00:17:32;;;;;;;3.83;2.70;;;;;20.10;98839.00;;;;2070924;28;20296;-51
2023/01/15 00:18:33;;;;;;;7.00;2.70;;;;;20.10;98841.00;;;;2071224;28;20218;-51
2023/01/15 00:19:33;;;;;;;3.67;2.57;;;;;20.10;98844.00;;;;2075249;28;20213;-51
2023/01/15 00:20:33;;;;;;;4.47;2.63;;;;;20.10;98849.00;;;;2079269;28;20220;-50
2023/01/15 00:21:34;;;;;;;3.40;2.30;;;;;20.10;98851.00;;;;2079284;28;20220;-50
2023/01/15 00:22:34;;;;;;;4.63;2.13;;;;;20.10;98855.00;;;;2077598;28;20216;-51
2023/01/15 00:27:39;;;;;;;3.53;2.22;;;;;20.00;98847.00;;;;2078877;28;20209;-50
2023/01/15 00:28:40;;;;;;;4.72;1.90;;;;;20.10;98855.00;;;;2078656;28;20528;-51
2023/01/15 00:29:40;;;;;;;3.70;2.20;;;;;20.00;98860.00;;;;2078455;28;20213;-50
2023/01/15 00:30:41;;;;;;;3.90;2.33;;;;;20.10;98858.00;;;;2078474;28;20300;-50
2023/01/15 00:31:41;;;;;;;3.90;2.30;;;;;20.00;98863.00;;;;2078939;28;20213;-49
2023/01/15 00:32:42;;;;;;;2.67;1.70;;;;;20.10;98856.00;;;;2077064;28;20218;-51
2023/01/15 00:33:42;;;;;;;2.80;2.07;;;;;20.10;98857.00;;;;2078456;28;20209;-51
2023/01/15 00:34:43;;;;;;;2.57;1.87;;;;;20.10;98853.00;;;;2079118;28;20674;-50
2023/01/15 00:35:43;;;;;;;4.40;2.03;;;;;20.00;98855.00;;;;2079039;28;20709;-51
2023/01/15 00:36:43;;;;;;;3.50;1.80;;;;;20.00;98862.00;;;;2079130;28;21020;-51
2023/01/15 00:37:44;;;;;;;2.83;1.90;;;;;20.00;98865.00;;;;2078587;28;20209;-51
2023/01/15 00:38:44;;;;;;;3.10;1.90;;;;;20.00;98864.00;;;;2078741;28;20221;-51
2023/01/15 00:39:44;;;;;;;2.57;1.60;;;;;20.00;98855.00;;;;2078907;28;20216;-50
2023/01/15 00:40:49;;;;;;;4.80;2.13;;;;;20.00;98847.00;;;;2070513;28;20214;-51
2023/01/15 00:41:49;;;;;;;2.80;1.73;;;;;20.00;98838.00;;;;2069269;28;20245;-50
2023/01/15 00:42:49;;;;;;;3.00;2.00;;;;;20.00;98834.00;;;;2070169;28;20214;-51
2023/01/15 00:43:51;;;;;;;3.17;1.67;;;;;20.00;98827.00;;;;2069978;28;20220;-50
2023/01/15 00:44:52;;;;;;;3.15;1.65;;;;;20.00;98832.00;;;;2070430;28;20309;-51
2023/01/15 00:45:52;;;;;;;4.10;2.00;;;;;20.00;98828.00;;;;2070474;28;20210;-50
2023/01/15 00:46:52;;;;;;;2.80;1.73;;;;;20.00;98826.00;;;;2070381;28;20264;-50
2023/01/15 00:47:53;;;;;;;2.80;1.73;;;;;20.00;98825.00;;;;2070590;28;20218;-51
2023/01/15 00:48:53;;;;;;;3.37;1.57;;;;;20.00;98813.00;;;;2070306;28;20221;-50
2023/01/15 00:49:53;;;;;;;2.20;1.67;;;;;20.00;98823.00;;;;2069665;28;20289;-51
2023/01/15 00:50:54;;;;;;;3.50;1.90;;;;;20.00;98825.00;;;;2069734;28;20222;-51
2023/01/15 00:51:54;;;;;;;3.00;1.60;;;;;20.00;98814.00;;;;2069198;28;20221;-51
2023/01/15 00:52:54;;;;;;;1.87;1.50;;;;;20.00;98816.00;;;;2070422;28;20217;-50
2023/01/15 00:53:55;;;;;;;3.67;1.87;;;;;20.00;98811.00;;;;2070294;28;20323;-51
2023/01/15 00:54:55;;;;;;;3.07;1.67;;;;;20.00;98808.00;;;;2069686;28;20214;-51
2023/01/15 00:55:55;;;;;;;3.20;1.90;;;;;20.00;98813.00;;;;2070037;28;20288;-51
2023/01/15 00:56:56;;;;;;;2.40;1.43;;;;;20.00;98811.00;;;;2070620;28;20214;-50
2023/01/15 00:57:56;;;;;;;2.50;1.70;;;;;19.90;98815.00;;;;2070849;28;20317;-51
2023/01/15 00:58:56;;;;;;;2.60;1.60;;;;;19.90;98816.00;;;;2070954;28;20225;-50
2023/01/15 00:59:57;;;;;;;3.00;1.80;;;;;20.00;98816.00;;;;2070484;28;20225;-50
2023/01/15 01:00:58;;;;;;;5.00;1.83;;;;;19.90;98801.00;;;;2070789;28;20217;-51
2023/01/15 01:01:58;;;;;;;3.50;1.88;;;;;19.90;98804.00;;;;2069579;28;20690;-50
2023/01/15 01:02:59;;;;;;;2.60;1.60;;;;;19.90;98804.00;;;;2070851;28;20218;-51
2023/01/15 01:03:59;;;;;;;3.67;1.70;;;;;19.90;98795.00;;;;2070459;28;20221;-51
2023/01/15 01:04:59;;;;;;;2.00;1.40;;;;;19.90;98816.00;;;;2069521;28;20221;-50
2023/01/15 01:06:00;;;;;;;3.13;1.60;;;;;19.90;98819.00;;;;2070149;28;20826;-50
2023/01/15 01:07:01;;;;;;;4.17;1.63;;;;;19.90;98812.00;;;;2066955;28;20733;-50
2023/01/15 01:08:01;;;;;;;3.50;1.80;;;;;19.90;98808.00;;;;2086252;28;20475;-50
2023/01/15 01:09:03;;;;;;;2.60;1.60;;;;;19.90;98809.00;;;;2078073;28;20239;-51
2023/01/15 01:10:03;;;;;;;3.03;1.60;;;;;20.00;98812.00;;;;2071714;28;20213;-52
2023/01/15 01:11:05;;;;;;;2.17;1.30;;;;;20.00;98805.00;;;;2078307;28;20213;-51
2023/01/15 01:12:05;;;;;;;2.35;1.27;;;;;19.90;98797.00;;;;2077699;28;20299;-50
2023/01/15 01:13:06;;;;;;;3.60;1.80;;;;;19.90;98785.00;;;;2077860;28;20290;-50
2023/01/15 01:14:06;;;;;;;2.37;1.43;;;;;19.90;98785.00;;;;2076889;28;20617;-50
2023/01/15 01:15:08;;;;;;;3.30;2.10;;;;;19.90;98787.00;;;;2070318;28;20229;-50
2023/01/15 01:16:34;;;;;;;2.75;1.40;;;;;19.90;98788.00;;;;2069637;28;20213;-49
2023/01/15 01:17:37;;;;;;;2.95;1.70;;;;;19.90;98808.00;;;;2068347;28;20260;-50
2023/01/15 01:18:37;;;;;;;3.50;1.30;;;;;19.90;98808.00;;;;2078109;28;20315;-51
2023/01/15 01:19:38;;;;;;;3.27;1.70;;;;;19.90;98814.00;;;;2079004;28;20307;-50
2023/01/15 01:20:38;;;;;;;2.03;1.33;;;;;19.90;98825.00;;;;2072211;28;20225;-51
2023/01/15 01:21:39;;;;;;;2.93;1.60;;;;;19.90;98824.00;;;;2077891;28;20213;-51
2023/01/15 01:22:39;;;;;;;2.30;1.40;;;;;19.90;98826.00;;;;2077291;28;20296;-50
2023/01/15 01:23:40;;;;;;;2.43;1.00;;;;;19.90;98823.00;;;;2078636;28;20452;-51
2023/01/15 01:24:40;;;;;;;2.10;1.20;;;;;19.90;98838.00;;;;2078839;28;20675;-51
2023/01/15 01:25:40;;;;;;;2.30;1.17;;;;;19.90;98841.00;;;;2078612;28;20209;-50
2023/01/15 01:26:42;;;;;;;2.40;1.33;;;;;19.90;98850.00;;;;2078342;28;20213;-51
2023/01/15 01:27:44;;;;;;;4.88;1.50;;;;;19.90;98845.00;;;;2078217;28;20218;-50
2023/01/15 01:28:48;;;;;;;1.70;1.17;;;;;19.90;98807.00;;;;2078098;28;20256;-51
2023/01/15 01:29:48;;;;;;;2.35;1.08;;;;;19.90;98856.00;;;;2076934;28;20690;-50
2023/01/15 01:30:48;;;;;;;2.10;1.10;;;;;19.90;98855.00;;;;2078260;28;20301;-50
2023/01/15 01:31:49;;;;;;;2.63;0.90;;;;;19.90;98853.00;;;;2076771;28;20213;-50
2023/01/15 01:32:50;;;;;;;3.03;1.27;;;;;19.90;98851.00;;;;2078803;28;20239;-51
2023/01/15 01:33:54;;;;;;;1.57;1.00;;;;;19.90;98846.00;;;;2076799;28;20257;-50
2023/01/15 01:34:54;;;;;;;3.85;1.58;;;;;19.90;98847.00;;;;2069909;28;20225;-50
2023/01/15 01:35:55;;;;;;;1.50;1.03;;;;;19.90;98862.00;;;;2070704;28;21127;-51
2023/01/15 01:36:55;;;;;;;5.07;1.50;;;;;19.90;98828.00;;;;2069763;28;20590;-51
2023/01/15 01:37:55;;;;;;;3.53;1.50;;;;;20.00;98849.00;;;;2069726;28;20590;-50
2023/01/15 01:38:56;;;;;;;2.30;1.57;;;;;20.00;98847.00;;;;2070199;28;21017;-50
2023/01/15 01:39:56;;;;;;;4.53;1.50;;;;;20.00;98861.00;;;;2070742;28;20831;-49
2023/01/15 01:40:57;;;;;;;3.90;1.50;;;;;20.00;98865.00;;;;2070441;28;20222;-50
2023/01/15 01:41:57;;;;;;;2.60;1.47;;;;;20.00;98857.00;;;;2069022;28;20709;-50
2023/01/15 01:42:57;;;;;;;2.47;1.30;;;;;20.00;98850.00;;;;2070071;28;20225;-50
2023/01/15 01:43:59;;;;;;;2.43;1.37;;;;;20.00;98853.00;;;;2070122;28;20276;-50
2023/01/15 01:45:06;;;;;;;1.90;1.00;;;;;20.00;98852.00;;;;2069639;28;20332;-50
2023/01/15 01:46:06;;;;;;;7.72;1.73;;;;;19.90;98853.00;;;;2075359;28;20304;-50
2023/01/15 01:47:08;;;;;;;8.17;1.23;;;;;20.00;98849.00;;;;2077449;28;20217;-50
2023/01/15 01:48:08;;;;;;;7.07;1.20;;;;;19.90;98845.00;;;;2060738;28;20279;-50
2023/01/15 01:49:10;;;;;;;4.73;1.30;;;;;19.90;98848.00;;;;2069312;28;20266;-52
2023/01/15 01:50:11;;;;;;;2.28;0.98;;;;;19.90;98846.00;;;;2077586;28;20221;-50
2023/01/15 01:51:12;;;;;;;2.88;1.00;;;;;20.10;98837.00;;;;2069618;28;20218;-51
2023/01/15 01:52:24;;;;;;;1.90;0.70;;;;;20.00;98851.00;;;;2076137;28;20555;-51
2023/01/15 01:53:27;;;;;;;3.70;1.20;;;;;20.00;98853.00;;;;2077360;28;20263;-51
2023/01/15 01:54:27;;;;;;;12.55;1.40;;;;;20.00;98848.00;;;;2068865;28;20220;-51
2023/01/15 01:55:27;;;;;;;4.60;0.90;;;;;20.00;98850.00;;;;2069175;28;20214;-51
2023/01/15 01:56:28;;;;;;;2.90;1.20;;;;;20.00;98864.00;;;;2062182;28;20221;-51
2023/01/15 01:57:28;;;;;;;2.10;0.93;;;;;20.00;98859.00;;;;2070459;28;20210;-51
2023/01/15 01:58:29;;;;;;;2.37;0.80;;;;;20.00;98855.00;;;;2078192;28;20276;-51
2023/01/15 01:59:30;;;;;;;2.72;1.08;;;;;19.90;98848.00;;;;2062602;28;20211;-52
2023/01/15 02:00:31;;;;;;;2.50;1.03;;;;;19.90;98850.00;;;;2070964;28;20226;-51
2023/01/15 02:01:31;;;;;;;3.93;1.13;;;;;20.00;98847.00;;;;2078904;28;20316;-51
2023/01/15 02:02:31;;;;;;;1.70;0.90;;;;;20.00;98864.00;;;;2069478;28;20453;-50
2023/01/15 02:03:35;;;;;;;3.93;1.10;;;;;20.00;98858.00;;;;2078961;28;20689;-51
2023/01/15 02:04:35;;;;;;;2.45;0.95;;;;;20.00;98861.00;;;;2070584;28;20321;-50
2023/01/15 02:05:42;;;;;;;2.13;0.93;;;;;20.00;98850.00;;;;2079032;28;20224;-50
2023/01/15 02:06:43;;;;;;;2.10;1.00;;;;;20.00;98864.00;;;;2078798;28;20295;-51
2023/01/15 02:07:43;;;;;;;1.40;0.70;;;;;20.00;98866.00;;;;2078769;28;20240;-51
2023/01/15 02:08:43;;;;;;;2.00;0.83;;;;;20.00;98862.00;;;;2078964;28;20241;-52
2023/01/15 02:09:44;;;;;;;4.00;1.20;;;;;20.00;98859.00;;;;2079220;28;20213;-51
2023/01/15 02:10:47;;;;;;;3.50;0.90;;;;;19.90;98846.00;;;;2079279;28;20209;-51
2023/01/15 02:11:48;;;;;;;1.58;0.90;;;;;20.00;98849.00;;;;2069971;28;20210;-50
2023/01/15 02:12:56;;;;;;;3.58;1.13;;;;;20.00;98849.00;;;;2068933;28;20242;-51
2023/01/15 02:14:35;;;;;;;2.33;0.90;;;;;20.00;98843.00;;;;2070436;28;20217;-50
2023/01/15 02:15:46;;;;;;;2.35;0.90;;;;;20.00;98848.00;;;;2044708;28;20983;-50
2023/01/15 02:16:46;;;;;;;1.60;0.85;;;;;20.00;98867.00;;;;2038138;29;20275;-51
2023/01/15 02:18:23;;;;;;;3.47;0.90;;;;;19.90;98849.00;;;;2048352;28;20638;-51
2023/01/15 02:19:45;;;;;;;2.33;0.73;;;;;20.00;98852.00;;;;2061030;28;20368;-51
2023/01/15 02:20:49;;;;;;;1.65;0.68;;;;;19.90;98844.00;;;;2075739;28;20251;-51
2023/01/15 02:21:59;;;;;;;3.17;0.80;;;;;19.90;98839.00;;;;2077841;28;20218;-50
2023/01/15 02:23:08;;;;;;;2.15;0.90;;;;;19.90;98826.00;;;;2068093;28;20759;-51
2023/01/15 02:24:37;;;;;;;2.00;0.70;;;;;19.90;98842.00;;;;2078803;28;21142;-51
2023/01/15 02:26:14;;;;;;;2.92;0.90;;;;;20.00;98831.00;;;;2078813;28;20937;-50
2023/01/15 02:27:19;;;;;;;3.80;0.77;;;;;20.00;98839.00;;;;2079237;28;20217;-50
2023/01/15 02:28:42;;;;;;;1.75;0.75;;;;;20.00;98838.00;;;;2070538;28;20207;-53
2023/01/15 02:29:57;;;;;;;3.95;0.98;;;;;20.00;98842.00;;;;2073897;28;20264;-51
2023/01/15 02:31:08;;;;;;;2.88;0.70;;;;;19.90;98833.00;;;;2078590;28;20221;-51
2023/01/15 02:32:25;;;;;;;2.90;0.80;;;;;19.90;98834.00;;;;2069320;28;20229;-50
2023/01/15 02:33:30;;;;;;;2.72;0.88;;;;;20.00;98837.00;;;;2064796;28;20239;-51
2023/01/15 02:34:33;;;;;;;1.05;0.60;;;;;20.00;98854.00;;;;2054707;28;20287;-51
2023/01/15 02:35:37;;;;;;;1.33;0.80;;;;;20.00;98837.00;;;;2059336;28;20258;-51
2023/01/15 02:36:40;;;;;;;2.13;0.95;;;;;20.00;98841.00;;;;2070580;28;20225;-51
2023/01/15 02:37:41;;;;;;;2.20;0.82;;;;;20.00;98857.00;;;;2063211;28;20710;-51
2023/01/15 02:38:44;;;;;;;2.70;0.80;;;;;19.90;98847.00;;;;2062620;28;20230;-51
2023/01/15 02:39:44;;;;;;;1.15;0.70;;;;;19.90;98831.00;;;;2062878;28;20805;-51
2023/01/15 02:40:44;;;;;;;2.03;0.80;;;;;19.90;98832.00;;;;2070392;28;20322;-50
2023/01/15 02:41:48;;;;;;;1.47;0.77;;;;;19.90;98844.00;;;;2078368;28;20221;-51
2023/01/15 02:42:48;;;;;;;2.55;0.88;;;;;19.90;98823.00;;;;2070161;28;20218;-50
2023/01/15 02:43:50;;;;;;;2.87;0.90;;;;;19.90;98825.00;;;;2078821;28;20214;-51
2023/01/15 02:44:51;;;;;;;1.88;0.70;;;;;19.90;98819.00;;;;2070538;28;20226;-51
2023/01/15 02:45:52;;;;;;;3.20;0.70;;;;;19.90;98817.00;;;;2070561;28;20214;-51
2023/01/15 02:46:52;;;;;;;4.22;0.88;;;;;19.90;98821.00;;;;2069874;28;20808;-51
2023/01/15 02:47:53;;;;;;;1.57;0.60;;;;;19.90;98812.00;;;;2070839;28;20241;-52
2023/01/15 02:48:53;;;;;;;1.13;0.60;;;;;19.90;98778.00;;;;2070759;28;20257;-51
2023/01/15 02:49:54;;;;;;;2.20;0.97;;;;;19.90;98804.00;;;;2070644;28;21024;-50
2023/01/15 02:50:57;;;;;;;2.70;1.10;;;;;19.90;98805.00;;;;2078759;28;20855;-51
2023/01/15 02:52:02;;;;;;;1.95;0.70;;;;;19.80;98802.00;;;;2061298;28;20223;-50
2023/01/15 02:53:04;;;;;;;2.50;0.80;;;;;19.90;98804.00;;;;2071176;28;20210;-51
2023/01/15 02:54:05;;;;;;;1.40;0.68;;;;;19.90;98804.00;;;;2070292;28;20238;-51
2023/01/15 02:55:14;;;;;;;1.35;0.60;;;;;19.90;98816.00;;;;2070402;28;20606;-51
2023/01/15 02:56:18;;;;;;;1.15;0.60;;;;;19.90;98819.00;;;;2070503;28;20218;-51
2023/01/15 02:57:18;;;;;;;2.55;0.82;;;;;19.90;98823.00;;;;2063820;28;20211;-51
2023/01/15 02:58:27;;;;;;;1.87;0.80;;;;;19.80;98821.00;;;;2072400;28;20351;-50
2023/01/15 02:59:31;;;;;;;1.20;0.70;;;;;19.80;98831.00;;;;2067276;28;20225;-50
2023/01/15 03:00:34;;;;;;;1.83;0.60;;;;;19.80;98825.00;;;;2063092;28;20211;-50
2023/01/15 03:01:43;;;;;;;4.90;0.90;;;;;19.80;98820.00;;;;2067046;28;20198;-50
2023/01/15 03:02:52;;;;;;;4.10;0.75;;;;;19.80;98818.00;;;;2062775;28;20585;-50
2023/01/15 03:04:14;;;;;;;1.58;0.80;;;;;19.80;98811.00;;;;2074327;28;20280;-50
2023/01/15 03:05:21;;;;;;;3.13;0.50;;;;;19.70;98817.00;;;;2074837;28;20218;-50
2023/01/15 03:06:26;;;;;;;3.33;0.60;;;;;19.70;98808.00;;;;2070897;28;20221;-50
2023/01/15 03:07:40;;;;;;;5.75;0.93;;;;;19.70;98814.00;;;;2066214;28;20253;-49
2023/01/15 03:08:41;;;;;;;4.30;0.50;;;;;19.70;98812.00;;;;2069762;28;20218;-50
2023/01/15 03:09:41;;;;;;;5.60;0.90;;;;;19.70;98820.00;;;;2070451;28;20218;-50
2023/01/15 03:10:47;;;;;;;4.37;0.80;;;;;19.60;98810.00;;;;2070550;28;20675;-50
2023/01/15 03:12:14;;;;;;;2.15;0.70;;;;;19.70;98824.00;;;;2062674;28;20556;-49
2023/01/15 03:13:16;;;;;;;4.10;0.88;;;;;19.70;98817.00;;;;2065412;28;20640;-50
2023/01/15 03:14:22;;;;;;;3.08;0.65;;;;;19.70;98812.00;;;;2069533;28;20805;-50
2023/01/15 03:16:49;;;;;;;3.40;0.80;;;;;19.60;98813.00;;;;2070694;28;20704;-50
2023/01/15 03:17:54;;;;;;;2.08;0.65;;;;;19.60;98810.00;;;;2073519;28;20228;-50
2023/01/15 03:19:19;;;;;;;3.10;0.50;;;;;19.60;98815.00;;;;2069660;28;20221;-51
2023/01/15 03:20:22;;;;;;;2.97;0.80;;;;;19.60;98812.00;;;;2077357;28;20228;-50
2023/01/15 03:21:27;;;;;;;1.98;0.77;;;;;19.60;98799.00;;;;2066633;28;20586;-55
2023/01/15 03:22:29;;;;;;;2.10;0.60;;;;;19.60;98805.00;;;;2054371;28;20229;-49
2023/01/15 03:23:29;;;;;;;1.88;0.60;;;;;19.60;98819.00;;;;2068237;28;20575;-51
2023/01/15 03:24:51;;;;;;;2.87;0.90;;;;;19.60;98814.00;;;;2070259;28;20214;-51
2023/01/15 03:25:52;;;;;;;3.17;0.50;;;;;19.50;98813.00;;;;2071175;28;20241;-50
2023/01/15 03:26:52;;;;;;;4.00;0.90;;;;;19.50;98804.00;;;;2071148;28;20320;-50
2023/01/15 03:27:54;;;;;;;1.80;0.57;;;;;19.50;98806.00;;;;2066688;28;20242;-50
2023/01/15 03:28:54;;;;;;;2.35;0.60;;;;;19.50;98804.00;;;;2077839;28;20213;-50
2023/01/15 03:29:59;;;;;;;1.17;0.60;;;;;19.60;98798.00;;;;2078567;28;20217;-50
2023/01/15 03:30:59;;;;;;;1.80;0.70;;;;;19.50;98785.00;;;;2073473;28;20711;-52
2023/01/15 03:32:00;;;;;;;3.90;0.70;;;;;19.50;98792.00;;;;2067000;28;20245;-51
2023/01/15 03:33:00;;;;;;;1.90;0.50;;;;;19.50;98780.00;;;;2078417;28;20221;-50
2023/01/15 03:34:01;;;;;;;1.30;0.70;;;;;19.50;98788.00;;;;2078473;28;20589;-50
2023/01/15 03:35:03;;;;;;;1.97;0.63;;;;;19.50;98806.00;;;;2078727;28;20695;-51
2023/01/15 03:36:03;;;;;;;2.10;0.68;;;;;19.50;98805.00;;;;2072737;28;20234;-50
2023/01/15 03:37:03;;;;;;;3.70;0.80;;;;;19.50;98786.00;;;;2070395;28;20238;-50
2023/01/15 03:38:04;;;;;;;3.40;0.57;;;;;19.50;98787.00;;;;2069760;28;20222;-50
2023/01/15 03:39:04;;;;;;;1.37;0.67;;;;;19.50;98779.00;;;;2053965;28;20223;-50
2023/01/15 03:40:06;;;;;;;1.40;0.60;;;;;19.50;98782.00;;;;2061914;28;20235;-50
2023/01/15 03:41:20;;;;;;;1.65;0.70;;;;;19.50;98783.00;;;;2070039;28;20277;-51
2023/01/15 03:42:45;;;;;;;1.45;0.77;;;;;19.50;98775.00;;;;2077039;28;20657;-51
2023/01/15 03:44:04;;;;;;;0.80;0.47;;;;;19.50;98781.00;;;;2074605;28;20225;-50
2023/01/15 03:45:16;;;;;;;1.70;0.57;;;;;19.50;98783.00;;;;2063735;28;20265;-50
2023/01/15 03:46:44;;;;;;;2.78;0.70;;;;;19.40;98772.00;;;;2055283;28;20226;-50
2023/01/15 03:48:01;;;;;;;1.45;0.65;;;;;19.40;98779.00;;;;2069991;28;20205;-50
2023/01/15 03:49:17;;;;;;;2.00;0.60;;;;;19.40;98774.00;;;;2078363;28;20685;-50
2023/01/15 03:50:23;;;;;;;1.45;0.70;;;;;19.50;98773.00;;;;2070221;28;20602;-50
2023/01/15 03:51:48;;;;;;;1.45;0.57;;;;;19.40;98769.00;;;;2071917;28;20947;-50
2023/01/15 03:52:58;;;;;;;1.35;0.50;;;;;19.40;98785.00;;;;2069775;28;20720;-51
2023/01/15 03:53:58;;;;;;;1.42;0.50;;;;;19.40;98792.00;;;;2071598;28;20309;-50
2023/01/15 03:55:23;;;;;;;2.20;0.50;;;;;19.40;98795.00;;;;2069720;28;20218;-51
2023/01/15 03:56:35;;;;;;;2.33;0.60;;;;;19.40;98795.00;;;;2064806;28;20210;-51
2023/01/15 03:57:39;;;;;;;3.55;0.60;;;;;19.40;98800.00;;;;2056767;28;20790;-50
2023/01/15 03:58:43;;;;;;;1.60;0.40;;;;;19.40;98792.00;;;;2054250;28;20223;-51
2023/01/15 03:59:52;;;;;;;1.08;0.50;;;;;19.40;98783.00;;;;2061519;28;20277;-50
2023/01/15 04:00:58;;;;;;;1.08;0.50;;;;;19.40;98776.00;;;;2055585;28;20219;-50
2023/01/15 04:01:59;;;;;;;1.35;0.70;;;;;19.40;98785.00;;;;2060672;28;20214;-54
2023/01/15 04:02:59;;;;;;;2.20;0.83;;;;;19.40;98783.00;;;;2069490;28;20578;-52
2023/01/15 04:03:59;;;;;;;4.70;1.00;;;;;19.40;98779.00;;;;2069385;28;20215;-51
2023/01/15 04:05:00;;;;;;;1.90;0.60;;;;;19.40;98791.00;;;;2077501;28;20214;-51
2023/01/15 04:06:00;;;;;;;2.83;0.50;;;;;19.30;98795.00;;;;2077045;28;20240;-50
2023/01/15 04:07:01;;;;;;;1.37;0.83;;;;;19.30;98800.00;;;;2069292;28;20237;-50
2023/01/15 04:08:01;;;;;;;2.17;0.70;;;;;19.40;98796.00;;;;2069738;28;20225;-50
2023/01/15 04:09:03;;;;;;;1.87;0.70;;;;;19.30;98787.00;;;;2069509;28;20241;-50
2023/01/15 04:10:07;;;;;;;1.17;0.50;;;;;19.30;98795.00;;;;2061576;28;20706;-51
2023/01/15 04:11:07;;;;;;;1.33;0.70;;;;;19.40;98792.00;;;;2069978;28;20288;-50
2023/01/15 04:12:08;;;;;;;1.07;0.53;;;;;19.40;98796.00;;;;2068028;28;21121;-50
2023/01/15 04:13:09;;;;;;;1.80;0.50;;;;;19.30;98793.00;;;;2077538;28;20220;-50
2023/01/15 04:14:11;;;;;;;3.63;0.60;;;;;19.30;98793.00;;;;2070053;28;20206;-50
2023/01/15 04:15:12;;;;;;;1.80;0.60;;;;;19.30;98798.00;;;;2061342;28;20376;-50
2023/01/15 04:16:12;;;;;;;1.83;0.63;;;;;19.30;98802.00;;;;2061260;28;20230;-50
2023/01/15 04:17:12;;;;;;;1.07;0.50;;;;;19.30;98800.00;;;;2070186;28;20615;-50
2023/01/15 04:18:13;;;;;;;2.20;0.53;;;;;19.30;98800.00;;;;2069379;28;20606;-51
2023/01/15 04:19:13;;;;;;;2.20;0.70;;;;;19.30;98797.00;;;;2069613;28;20798;-50
2023/01/15 04:20:13;;;;;;;1.23;0.40;;;;;19.30;98801.00;;;;2070170;28;20878;-51
2023/01/15 04:21:14;;;;;;;1.40;0.70;;;;;19.30;98796.00;;;;2069804;28;20553;-50
2023/01/15 04:22:14;;;;;;;1.20;0.60;;;;;19.30;98768.00;;;;2069053;28;20794;-51
2023/01/15 04:23:14;;;;;;;1.97;0.60;;;;;19.30;98784.00;;;;2070165;28;20635;-50
2023/01/15 04:24:15;;;;;;;1.63;0.50;;;;;19.30;98784.00;;;;2070428;28;21065;-50
2023/01/15 04:25:15;;;;;;;1.67;0.83;;;;;19.30;98781.00;;;;2070324;28;20293;-50
2023/01/15 04:26:15;;;;;;;1.33;0.60;;;;;19.30;98781.00;;;;2070412;28;20210;-50
2023/01/15 04:27:16;;;;;;;1.80;0.60;;;;;19.30;98784.00;;;;2069650;28;20210;-50
2023/01/15 04:28:16;;;;;;;1.17;0.50;;;;;19.30;98784.00;;;;2069689;28;20722;-49
2023/01/15 04:29:17;;;;;;;2.10;0.73;;;;;19.30;98782.00;;;;2070110;28;20234;-50
2023/01/15 04:30:18;;;;;;;1.60;0.50;;;;;19.30;98795.00;;;;2069368;28;20218;-50
2023/01/15 04:31:18;;;;;;;2.30;0.70;;;;;19.30;98784.00;;;;2070631;28;20292;-50
2023/01/15 04:32:19;;;;;;;3.50;0.97;;;;;19.30;98786.00;;;;2069207;28;20210;-51
2023/01/15 04:33:19;;;;;;;3.53;1.03;;;;;19.30;98800.00;;;;2070529;28;20203;-50
2023/01/15 04:34:19;;;;;;;2.10;0.57;;;;;19.30;98803.00;;;;2070363;28;20241;-50
2023/01/15 04:35:20;;;;;;;1.30;0.50;;;;;19.30;98802.00;;;;2070636;28;20600;-49
2023/01/15 04:36:20;;;;;;;1.20;0.50;;;;;19.30;98801.00;;;;2070560;28;20206;-50
2023/01/15 04:37:20;;;;;;;1.33;0.50;;;;;19.20;98806.00;;;;2070525;28;20268;-50
2023/01/15 04:38:21;;;;;;;1.37;0.60;;;;;19.30;98804.00;;;;2069658;28;20292;-50
2023/01/15 04:39:21;;;;;;;1.00;0.60;;;;;19.30;98801.00;;;;2069530;28;20300;-51
2023/01/15 04:44:18;;;;;;;0.82;0.50;;;;;19.20;98812.00;;;;2076883;28;20221;-50
2023/01/15 04:45:18;;;;;;;2.33;0.73;;;;;19.20;98802.00;;;;2078435;28;20210;-51
2023/01/15 04:46:22;;;;;;;2.50;0.70;;;;;19.20;98803.00;;;;2078423;28;20202;-51
2023/01/15 04:47:23;;;;;;;1.30;0.55;;;;;19.30;98808.00;;;;2078570;28;20352;-51
2023/01/15 04:48:23;;;;;;;0.80;0.50;;;;;19.20;98808.00;;;;2070718;28;20701;-50
2023/01/15 04:49:24;;;;;;;1.00;0.43;;;;;19.20;98814.00;;;;2078229;28;20209;-51
2023/01/15 04:50:24;;;;;;;1.03;0.50;;;;;19.20;98807.00;;;;2078221;28;20217;-50
2023/01/15 04:51:25;;;;;;;1.73;0.70;;;;;19.20;98800.00;;;;2078007;28;20214;-50
2023/01/15 04:52:25;;;;;;;2.43;0.57;;;;;19.20;98808.00;;;;2069091;28;20220;-50
2023/01/15 04:53:25;;;;;;;3.10;0.60;;;;;19.20;98805.00;;;;2070257;28;20228;-51
2023/01/15 04:54:26;;;;;;;2.20;1.00;;;;;19.20;98805.00;;;;2070139;28;20763;-50
2023/01/15 04:55:26;;;;;;;3.73;0.80;;;;;19.20;98794.00;;;;2070076;28;20309;-50
2023/01/15 04:56:26;;;;;;;1.77;0.60;;;;;19.20;98801.00;;;;2068356;28;20225;-51
2023/01/15 04:57:27;;;;;;;1.93;0.70;;;;;19.20;98804.00;;;;2070013;28;20264;-51
2023/01/15 04:58:27;;;;;;;2.07;0.80;;;;;19.20;98801.00;;;;2070335;28;20229;-50
2023/01/15 04:59:28;;;;;;;1.33;0.50;;;;;19.20;98803.00;;;;2070133;28;20228;-49
2023/01/15 05:00:28;;;;;;;1.40;0.70;;;;;19.20;98799.00;;;;2069215;28;20214;-50
2023/01/15 05:01:28;;;;;;;1.80;0.53;;;;;19.20;98802.00;;;;2070157;28;20221;-50
2023/01/15 05:02:29;;;;;;;2.27;0.63;;;;;19.20;98809.00;;;;2068754;28;20276;-50
2023/01/15 05:03:29;;;;;;;1.47;0.60;;;;;19.20;98805.00;;;;2070300;28;20214;-50
2023/01/15 05:04:30;;;;;;;2.63;0.70;;;;;19.20;98796.00;;;;2070203;28;20244;-51
2023/01/15 05:05:31;;;;;;;1.30;0.60;;;;;19.20;98803.00;;;;2069650;28;20214;-50
2023/01/15 05:06:31;;;;;;;2.63;0.80;;;;;19.10;98796.00;;;;2069277;28;20214;-50
2023/01/15 05:07:32;;;;;;;2.70;0.70;;;;;19.10;98807.00;;;;2069594;28;20301;-51
2023/01/15 05:08:32;;;;;;;2.50;0.90;;;;;19.20;98816.00;;;;2070295;28;20345;-50
2023/01/15 05:09:33;;;;;;;1.57;0.70;;;;;19.20;98812.00;;;;2070224;28;20275;-51
2023/01/15 05:10:33;;;;;;;1.80;0.60;;;;;19.20;98804.00;;;;2069611;28;20421;-50
2023/01/15 05:11:37;;;;;;;2.30;0.80;;;;;19.20;98805.00;;;;2069804;28;20241;-51
2023/01/15 05:12:37;;;;;;;1.40;0.70;;;;;19.20;98810.00;;;;2068709;28;20221;-50
2023/01/15 05:13:38;;;;;;;1.83;0.60;;;;;19.20;98813.00;;;;2070573;28;20225;-50
2023/01/15 05:14:38;;;;;;;3.47;0.50;;;;;19.20;98804.00;;;;2070758;28;20214;-50
2023/01/15 05:15:41;;;;;;;2.50;0.50;;;;;19.20;98802.00;;;;2069724;28;20222;-50
2023/01/15 05:16:41;;;;;;;1.88;0.50;;;;;19.10;98802.00;;;;2058762;28;20301;-52
2023/01/15 05:17:42;;;;;;;2.60;0.83;;;;;19.10;98809.00;;;;2069306;28;20217;-51
2023/01/15 05:18:42;;;;;;;2.50;0.70;;;;;19.10;98800.00;;;;2069529;28;20253;-50
2023/01/15 05:19:43;;;;;;;1.37;0.60;;;;;19.10;98793.00;;;;2062044;28;20213;-50
2023/01/15 05:20:43;;;;;;;2.80;0.90;;;;;19.10;98798.00;;;;2076978;28;20460;-50
2023/01/15 05:21:44;;;;;;;1.30;0.70;;;;;19.10;98786.00;;;;2077246;28;20221;-50
2023/01/15 05:22:44;;;;;;;2.43;0.80;;;;;19.10;98802.00;;;;2077059;28;20209;-50
2023/01/15 05:23:45;;;;;;;1.40;0.60;;;;;19.10;98803.00;;;;2077988;28;20232;-50
2023/01/15 05:24:45;;;;;;;2.30;0.70;;;;;19.10;98797.00;;;;2078173;28;20202;-50
2023/01/15 05:25:45;;;;;;;4.00;0.77;;;;;19.20;98810.00;;;;2077982;28;20216;-51